Etusivu
METAR-TAF:

METAR-TAF

Lentoasemat :

Tuscaloosa, Alabama, Yhdysvallat

Leveyspiiri: 33-12-43N, Pituuspiiri: 087-36-57W, korkeus merenpinnasta: 52 m

Tämänhetkinen sää

Tämä raportti tehtiin 1 tunti ja 3 minuuttia sitten, kello 00.53 UTC
Tuuli 4 kn idästä/koillisesta
Lämpötila 12°C
Kosteus 88%
Ilmanpaine 1012 hPa
Näkyvyys: 16.1 km
selkeää

METAR: KTCL 190053Z AUTO 06004KT 10SM CLR 12/10 A2989 RMK AO2 SLP120 T01170100

Aika: 20:56 (01:56 UTC)

Sääennuste

Tämä raportti tehtiin 2 tuntia ja 14 minuuttia sitten, kello 23.42 UTC
Ennuste voimassa 19. päivästä klo 00 UTC - 19. päivään klo 24 UTC
Tuuli 6 kn idästä/koillisesta
Näkyvyys: 10 km
Pilvistä 25000 ft:n korkeudessa
From 19. päivästä klo 1000 UTC
Tuuli 7 kn koillisesta
Näkyvyys: 10 km
Pilvistä 5000 ft:n korkeudessa
From 19. päivästä klo 1500 UTC
Tuuli 8 kn koillisesta
Näkyvyys: 10 km
Pilvistä 3000 ft:n korkeudessa

TAF: KTCL 182342Z 1900/1924 06006KT P6SM OVC250 FM191000 05007KT P6SM OVC050 FM191500 05008KT P6SM OVC030

Säähavainnot ja -ennusteet yli 4000 lentoasemalta (METAR- ja TAF-raportit).

Käytössä olevat sääasemat on merkitty karttaan keltaisilla ja punaisilla pisteillä.

Aseta hiiri pisteen päälle nähdäksesi sääaseman nimen.

Klikkaa sitten nähdäksesi säähavainnot ja -ennusteet.

Kartan vaihtaminen: klikkaa mustalla rastilla varustettuja vihreitä pisteitä, niin voit zoomata sisään; viivalla varustettua vihreää pistettä, niin voit zoomata ulos tai vihreitä nuolia, niin pääset viereisille kartoille.


METAR-TAF: